Portada
METAR-TAF:

METAR-TAF

Aeroports :

Àqaba, Jordània

latitud: 29-38N, longitud: 035-01E, altitud: 53 m

Observació

L'informe es va fer fa 41 minuts, a les 07:00 UTC
Vent 5 kt del Nord
Temperatura 23°C
Humitat 61%
Pressió 1019 hPa
Visibilitat 10 km o més
sense núvols per sota de 1500 mi sense presència de cumulonimbus.

METAR: OJAQ 200700Z 01005KT CAVOK 23/15 Q1019 NOSIG

Hora: 10:41 (07:41 UTC)

Pronòstic

L'informe es va fer fa 2 hores i 59 minuts, a les 04:42 UTC
Pronòstic vàlid del 20 a les 06 UTC al 21 a les 12 UTC
Vent 12 kt del Nord
Visibilitat 10 km o més
sense núvols per sota de 1500 mi sense presència de cumulonimbus.
Probabilitat 30%
l' 20 a les 09 UTC al 20 a les 17 UTC
Visibilitat: 7000 m

TAF: OJAQ 200442Z 2006/2112 36012KT CAVOK PROB30 2009/2017 7000 NSC

Observacions i pronòstics meteorològics de més de 4000 aeroports (METAR i TAF).

Les estacions disponibles són els punts grocs i vermells al mapa.

Posi el ratolí al punt desitjat per veure el nom de l'estació.

Feu clic per veure les observacions i els pronòstics meteorològics.

Per canviar el mapa: feu clic els botons verds amb una creu de color negre per apropar; al botó verd amb un guió per allunyar la imatge; o en les fletxes verdes per a mapes adjacents.


METAR-TAF: